Terminal Aerodrome Forecast
Issued by NWS

Home | Current Version | Previous Version | Text Only | Print | Product List | Glossary On
Versions: 1 2 3 4 5 6 7 8 9 10 11 12 13 14
000
FTUS45 KCYS 200520
TAFLAR
TAF
KLAR 200520Z 2006/2106 24007KT P6SM SCT250
     FM201700 20015G22KT P6SM BKN050
     FM202100 14012KT P6SM VCSH OVC025
     FM210000 12012KT 1SM -SN OVC007=

USA.gov is the U.S. government's official web portal to all federal, state and local government web resources and services.